Flight Track Log - Related Links

Times and Time Zones

All times are in EDT time to prevent confusion due to time zone crossing. See the N2209L flight status page for this flight to view local times or setup timezone preferences in your user account.

Time Position Orientation Groundspeed Altitude Reporting Facility
EDT Latitude Longitude Course Direction KTS MPH feet Rate Location/Type
Tue 09:34:37 AM 34.7011 -102.2642 217° Southwest 161 185 8,500  Level Albuquerque Center
Tue 09:35:38 AM 34.6658 -102.2964 217° Southwest 160 184 8,500 48 Level Albuquerque Center
Tue 09:36:43 AM 34.6217 -102.3347 216° Southwest 162 186 8,600 49 Climbing Albuquerque Center
Tue 09:37:40 AM 34.5914 -102.3603 215° Southwest 163 188 8,600  Level Albuquerque Center
Tue 09:38:41 AM 34.5542 -102.3908 214° Southwest 163 188 8,600  Level Albuquerque Center
Tue 09:39:42 AM 34.5175 -102.4239 217° Southwest 163 188 8,600  Level Albuquerque Center
Tue 09:40:43 AM 34.4808 -102.4575 217° Southwest 165 190 8,600  Level Albuquerque Center
Tue 09:41:44 AM 34.4356 -102.4944 214° Southwest 164 189 8,600  Level Albuquerque Center
Tue 09:42:45 AM 34.3975 -102.5261 214° Southwest 165 190 8,600  Level Albuquerque Center
Tue 09:43:46 AM 34.3603 -102.5586 216° Southwest 166 191 8,600  Level Albuquerque Center
Tue 09:44:48 AM 34.3228 -102.5906 215° Southwest 165 190 8,600  Level Albuquerque Center
Tue 09:45:49 AM 34.2858 -102.6228 216° Southwest 164 189 8,600  Level Albuquerque Center
Tue 09:46:50 AM 34.2489 -102.6556 216° Southwest 165 190 8,600  Level Albuquerque Center
Tue 09:47:51 AM 34.2092 -102.6914 217° Southwest 168 193 8,600  Level Albuquerque Center
Tue 09:48:52 AM 34.1719 -102.7242 216° Southwest 167 192 8,600  Level Albuquerque Center
Tue 09:50:54 AM 34.0956 -102.7828 212° Southwest 173 199 8,600  Level Fort Center
Tue 09:51:54 AM 34.0606 -102.8183 220° Southwest 173 199 8,600  Level Fort Center
Tue 09:52:54 AM 34.0239 -102.8511 217° Southwest 173 199 8,600  Level Fort Center
Tue 09:53:54 AM 33.9889 -102.8864 220° Southwest 173 199 8,600  Level Fort Center
Tue 09:54:54 AM 33.9436 -102.9211 212° Southwest 173 199 8,600  Level Fort Center
Tue 09:55:54 AM 33.9089 -102.9489 214° Southwest 179 206 8,600  Level Fort Center
Tue 09:56:54 AM 33.8700 -102.9817 215° Southwest 172 198 8,600  Level Fort Center
Tue 09:57:54 AM 33.8353 -103.0119 216° Southwest 172 198 8,600  Level Fort Center
Tue 09:58:54 AM 33.7961 -103.0467 216° Southwest 177 204 8,600  Level Fort Center
Tue 09:59:54 AM 33.7569 -103.0817 217° Southwest 177 204 8,600  Level Fort Center
Tue 10:00:54 AM 33.7200 -103.1142 216° Southwest 177 204 8,600 -50 Level Fort Center
Tue 10:01:54 AM 33.6831 -103.1444 214° Southwest 171 197 8,500  Descending Fort Center
Tue 10:02:54 AM 33.6444 -103.1717 210° Southwest 176 203 8,600 50 Climbing Fort Center
Tue 10:03:54 AM 33.6053 -103.2067 217° Southwest 176 203 8,600  Level Fort Center
Tue 10:04:54 AM 33.5658 -103.2439 218° Southwest 176 203 8,600  Level Fort Center
Tue 10:05:54 AM 33.5311 -103.2714 213° Southwest 169 194 8,600  Level Fort Center
Tue 10:06:54 AM 33.4922 -103.3011 213° Southwest 169 194 8,600  Level Fort Center
Tue 10:07:54 AM 33.4553 -103.3336 216° Southwest 169 194 8,600  Level Fort Center
Tue 10:08:54 AM 33.4161 -103.3658 214° Southwest 169 194 8,600  Level Fort Center
Tue 10:09:54 AM 33.3814 -103.3958 216° Southwest 169 194 8,600  Level Fort Center
Tue 10:10:54 AM 33.3442 -103.4306 218° Southwest 169 194 8,600  Level Fort Center
Tue 10:11:09 AM 33.3381 -103.4333 201° Southwest 164 189 8,600  Level Albuquerque Center
Tue 10:12:11 AM 33.2925 -103.4722 216° Southwest 166 191 8,600  Level Albuquerque Center
Tue 10:13:12 AM 33.2553 -103.5022 214° Southwest 165 190 8,600  Level Albuquerque Center
Tue 10:14:14 AM 33.2172 -103.5347 216° Southwest 166 191 8,600  Level Albuquerque Center
Tue 10:15:16 AM 33.1808 -103.5647 215° Southwest 164 189 8,600  Level Albuquerque Center
Tue 10:16:17 AM 33.1433 -103.5969 216° Southwest 164 189 8,600  Level Albuquerque Center
Tue 10:17:19 AM 33.1069 -103.6283 216° Southwest 164 189 8,600  Level Albuquerque Center
Tue 10:18:21 AM 33.0683 -103.6586 213° Southwest 164 189 8,600  Level Albuquerque Center
Tue 10:19:22 AM 33.0236 -103.6972 216° Southwest 166 191 8,600  Level Albuquerque Center
Tue 10:20:24 AM 32.9886 -103.7269 215° Southwest 161 185 8,600  Level Albuquerque Center
Tue 10:21:26 AM 32.9481 -103.7600 214° Southwest 164 189 8,600  Level Albuquerque Center
Tue 10:22:27 AM 32.9103 -103.7917 215° Southwest 165 190 8,600  Level Albuquerque Center
Tue 10:23:29 AM 32.8703 -103.8256 215° Southwest 163 188 8,600  Level Albuquerque Center
Tue 10:24:31 AM 32.8311 -103.8569 214° Southwest 168 193 8,600  Level Albuquerque Center
Tue 10:25:32 AM 32.7944 -103.8878 215° Southwest 165 190 8,600 -98 Level Albuquerque Center
Tue 10:26:34 AM 32.7533 -103.9211 214° Southwest 166 191 8,400 -242 Descending Albuquerque Center
Tue 10:27:36 AM 32.7136 -103.9525 214° Southwest 168 193 8,100 -339 Descending Albuquerque Center
Tue 10:28:38 AM 32.6744 -103.9867 216° Southwest 170 196 7,700 -439 Descending Albuquerque Center
Tue 10:29:39 AM 32.6342 -104.0156 211° Southwest 173 199 7,200 -390 Descending Albuquerque Center
Tue 10:30:41 AM 32.5883 -104.0353 200° South 175 201 6,900 -339 Descending Albuquerque Center
Tue 10:31:43 AM 32.5400 -104.0656 208° Southwest 178 205 6,500 -290 Descending Albuquerque Center
Tue 10:32:45 AM 32.5108 -104.1067 230° Southwest 165 190 6,300 -194 Descending Albuquerque Center
Tue 10:33:47 AM 32.4867 -104.1461 234° Southwest 152 175 6,100 -145 Descending Albuquerque Center
Tue 10:34:49 AM 32.4656 -104.1914 241° Southwest 148 170 6,000 -194 Descending Albuquerque Center
Tue 10:35:51 AM 32.4647 -104.2283 268° West 158 182 5,700 -97 Descending Albuquerque Center
Tue 10:36:53 AM 32.4819 -104.2406 329° Northwest 165 190 5,800 48 Climbing Albuquerque Center
Tue 10:37:55 AM 32.4486 -104.2325 168° South 167 192 5,800  Level Albuquerque Center
Tue 10:39:00 AM 32.4025 -104.2453 214° Southwest  Level Estimated
Tue 10:46:00 AM 32.3333 -104.2500 214° Southwest  Level FlightAware
Tue 10:47:00 AM 32.3374 -104.2634 214° Southwest  Level Estimated
Tue 10:48:00 AM 32.3374 -104.2634 214° Southwest  Level Estimated
Tue 10:49:00 AM 32.3374 -104.2634 214° Southwest  Level Estimated
Tue 10:50:00 AM 32.3374 -104.2634 214° Southwest  Level Estimated

Login

Don't have an account? Register now (free) for customized features, flight alerts, and more!